CES5810 ZSSS-ZPPP
Flight info
| Callsign | CES5810 |
|---|---|
| Flight time | N/A |
| Altitude | 34100 |
| Route | NXD61D NXD W131 AKDIM A470 SAGNU W132 OREXA DCT P395 DCT AVDIP W226 IPMUG W611 BIVAV W138 DYG W140 HUY A581 QNX W136 XISLI XISLI3C |
| Aircraft | A21N/M-SDE3FGHIRWY/LB1 |
Departure
| Time | N/A |
|---|---|
| Airport | Shanghai Hongqiao International Airport (ZSSS) |
Arrival
| Time | 2026-05-04 14:35 |
|---|---|
| Airport | Kunming Changshui International Airport (ZPPP) |
| Time | Latitude | Longitude | Altitude | Speed | Heading |
|---|---|---|---|---|---|
| 2026-05-04 12:22 | 29.22086 | 117.87278 | 34208 ft | 368 kts | 251° |
| 2026-05-04 12:22 | 29.21143 | 117.84537 | 34209 ft | 369 kts | 251° |
| 2026-05-04 12:22 | 29.19273 | 117.79102 | 34200 ft | 368 kts | 251° |
| 2026-05-04 12:23 | 29.17399 | 117.73666 | 34194 ft | 368 kts | 251° |
| 2026-05-04 12:23 | 29.15523 | 117.68241 | 34199 ft | 368 kts | 251° |
| 2026-05-04 12:24 | 29.13645 | 117.62807 | 34195 ft | 368 kts | 251° |
| 2026-05-04 12:24 | 29.11755 | 117.57350 | 34188 ft | 368 kts | 251° |
| 2026-05-04 12:25 | 29.09883 | 117.51951 | 34187 ft | 367 kts | 251° |
| 2026-05-04 12:25 | 29.07994 | 117.46519 | 34179 ft | 368 kts | 251° |
| 2026-05-04 12:26 | 29.06111 | 117.41099 | 34174 ft | 367 kts | 251° |
| 2026-05-04 12:26 | 29.04227 | 117.35683 | 34172 ft | 367 kts | 251° |
| 2026-05-04 12:27 | 29.02337 | 117.30263 | 34164 ft | 367 kts | 250° |
| 2026-05-04 12:27 | 29.00528 | 117.24820 | 34167 ft | 367 kts | 252° |
| 2026-05-04 12:28 | 28.98806 | 117.19382 | 34163 ft | 367 kts | 252° |
| 2026-05-04 12:28 | 28.97075 | 117.13912 | 34156 ft | 367 kts | 252° |
| 2026-05-04 12:29 | 28.95347 | 117.08441 | 34163 ft | 367 kts | 252° |
| 2026-05-04 12:29 | 28.93608 | 117.02947 | 34158 ft | 368 kts | 252° |
| 2026-05-04 12:30 | 28.91872 | 116.97458 | 34157 ft | 368 kts | 252° |
| 2026-05-04 12:30 | 28.90136 | 116.91981 | 34154 ft | 367 kts | 252° |
| 2026-05-04 12:31 | 28.88399 | 116.86520 | 34154 ft | 368 kts | 252° |
| 2026-05-04 12:31 | 28.86654 | 116.81038 | 34151 ft | 368 kts | 252° |
| 2026-05-04 12:32 | 28.84049 | 116.72864 | 34149 ft | 368 kts | 253° |
| 2026-05-04 12:33 | 28.82295 | 116.67371 | 34149 ft | 369 kts | 253° |
| 2026-05-04 12:33 | 28.80539 | 116.61877 | 34151 ft | 369 kts | 252° |
| 2026-05-04 12:34 | 28.78788 | 116.56407 | 34149 ft | 369 kts | 253° |
| 2026-05-04 12:34 | 28.77034 | 116.50942 | 34153 ft | 369 kts | 252° |
| 2026-05-04 12:35 | 28.75264 | 116.45438 | 34152 ft | 369 kts | 252° |
| 2026-05-04 12:35 | 28.73508 | 116.39980 | 34153 ft | 369 kts | 252° |
| 2026-05-04 12:36 | 28.71732 | 116.34473 | 34153 ft | 370 kts | 252° |
| 2026-05-04 12:36 | 28.69963 | 116.28997 | 34153 ft | 370 kts | 252° |
| 2026-05-04 12:37 | 28.68183 | 116.23489 | 34152 ft | 370 kts | 252° |
| 2026-05-04 12:37 | 28.66406 | 116.18012 | 34150 ft | 370 kts | 252° |
| 2026-05-04 12:38 | 28.64617 | 116.12491 | 34150 ft | 371 kts | 252° |
| 2026-05-04 12:38 | 28.62832 | 116.06993 | 34150 ft | 371 kts | 252° |
| 2026-05-04 12:39 | 28.61041 | 116.01493 | 34149 ft | 371 kts | 252° |
| 2026-05-04 12:39 | 28.59252 | 115.95998 | 34151 ft | 371 kts | 252° |
| 2026-05-04 12:40 | 28.57449 | 115.90480 | 34149 ft | 371 kts | 252° |
| 2026-05-04 12:40 | 28.55656 | 115.84979 | 34152 ft | 371 kts | 252° |
| 2026-05-04 12:41 | 28.53863 | 115.79501 | 34152 ft | 371 kts | 252° |
| 2026-05-04 12:41 | 28.52047 | 115.73970 | 34149 ft | 372 kts | 252° |
| 2026-05-04 12:42 | 28.50269 | 115.68486 | 34150 ft | 372 kts | 253° |
| 2026-05-04 12:42 | 28.48797 | 115.62843 | 34148 ft | 371 kts | 257° |
| 2026-05-04 12:43 | 28.47759 | 115.57115 | 34155 ft | 371 kts | 261° |
| 2026-05-04 12:43 | 28.46946 | 115.51357 | 34155 ft | 371 kts | 261° |
| 2026-05-04 12:44 | 28.46131 | 115.45554 | 34154 ft | 371 kts | 262° |
| 2026-05-04 12:44 | 28.45322 | 115.39748 | 34154 ft | 372 kts | 261° |
| 2026-05-04 12:45 | 28.44512 | 115.33982 | 34157 ft | 372 kts | 261° |
| 2026-05-04 12:45 | 28.43686 | 115.28156 | 34156 ft | 372 kts | 261° |
| 2026-05-04 12:46 | 28.42868 | 115.22375 | 34158 ft | 372 kts | 261° |
| 2026-05-04 12:46 | 28.42049 | 115.16598 | 34161 ft | 372 kts | 261° |
| 2026-05-04 12:47 | 28.41223 | 115.10774 | 34158 ft | 373 kts | 261° |
| 2026-05-04 12:47 | 28.40397 | 115.04971 | 34160 ft | 373 kts | 261° |
| 2026-05-04 12:48 | 28.39567 | 114.99154 | 34162 ft | 374 kts | 261° |
| 2026-05-04 12:48 | 28.38734 | 114.93368 | 34163 ft | 373 kts | 261° |
| 2026-05-04 12:49 | 28.37894 | 114.87528 | 34163 ft | 374 kts | 261° |
| 2026-05-04 12:49 | 28.37054 | 114.81705 | 34162 ft | 374 kts | 261° |
| 2026-05-04 12:50 | 28.36213 | 114.75891 | 34162 ft | 374 kts | 261° |
| 2026-05-04 12:50 | 28.35369 | 114.70063 | 34163 ft | 374 kts | 261° |
| 2026-05-04 12:51 | 28.34525 | 114.64267 | 34163 ft | 375 kts | 261° |
| 2026-05-04 12:51 | 28.33667 | 114.58388 | 34166 ft | 375 kts | 261° |
| 2026-05-04 12:52 | 28.32818 | 114.52578 | 34169 ft | 375 kts | 261° |
| 2026-05-04 12:52 | 28.31959 | 114.46723 | 34170 ft | 375 kts | 261° |
| 2026-05-04 12:53 | 28.31100 | 114.40894 | 34173 ft | 375 kts | 261° |
| 2026-05-04 12:53 | 28.30318 | 114.35072 | 34177 ft | 375 kts | 263° |
| 2026-05-04 12:54 | 28.29634 | 114.29185 | 34183 ft | 375 kts | 263° |
| 2026-05-04 12:54 | 28.28950 | 114.23337 | 34188 ft | 375 kts | 263° |
| 2026-05-04 12:55 | 28.28268 | 114.17474 | 34185 ft | 376 kts | 263° |
| 2026-05-04 12:55 | 28.27583 | 114.11605 | 34180 ft | 376 kts | 263° |
| 2026-05-04 12:56 | 28.26901 | 114.05769 | 34174 ft | 376 kts | 263° |
| 2026-05-04 12:56 | 28.26211 | 113.99898 | 34168 ft | 376 kts | 263° |
| 2026-05-04 12:57 | 28.25517 | 113.94020 | 34162 ft | 376 kts | 263° |
| 2026-05-04 12:57 | 28.24818 | 113.88126 | 34159 ft | 377 kts | 263° |
| 2026-05-04 12:58 | 28.24122 | 113.82257 | 34150 ft | 377 kts | 263° |
| 2026-05-04 12:58 | 28.23425 | 113.76390 | 34145 ft | 376 kts | 263° |
| 2026-05-04 12:59 | 28.22719 | 113.70513 | 34145 ft | 377 kts | 263° |
| 2026-05-04 12:59 | 28.22007 | 113.64642 | 34142 ft | 376 kts | 263° |
| 2026-05-04 13:00 | 28.21292 | 113.58769 | 34140 ft | 376 kts | 263° |
| 2026-05-04 13:00 | 28.20577 | 113.52902 | 34133 ft | 377 kts | 263° |
| 2026-05-04 13:01 | 28.19858 | 113.47019 | 34129 ft | 377 kts | 263° |
| 2026-05-04 13:01 | 28.19140 | 113.41187 | 34134 ft | 377 kts | 263° |
| 2026-05-04 13:02 | 28.18418 | 113.35304 | 34131 ft | 377 kts | 263° |
| 2026-05-04 13:02 | 28.17692 | 113.29390 | 34128 ft | 378 kts | 263° |
| 2026-05-04 13:03 | 28.16970 | 113.23524 | 34121 ft | 378 kts | 263° |
| 2026-05-04 13:03 | 28.16243 | 113.17636 | 34118 ft | 378 kts | 263° |
| 2026-05-04 13:04 | 28.15516 | 113.11772 | 34117 ft | 377 kts | 263° |
| 2026-05-04 13:04 | 28.14783 | 113.05885 | 34113 ft | 378 kts | 263° |
| 2026-05-04 13:05 | 28.14096 | 112.99994 | 34115 ft | 378 kts | 265° |
| 2026-05-04 13:05 | 28.13796 | 112.94052 | 34112 ft | 378 kts | 269° |
| 2026-05-04 13:06 | 28.13946 | 112.88122 | 34111 ft | 379 kts | 272° |
| 2026-05-04 13:06 | 28.14276 | 112.82149 | 34116 ft | 378 kts | 272° |
| 2026-05-04 13:07 | 28.14817 | 112.72576 | 34123 ft | 379 kts | 272° |
| 2026-05-04 13:07 | 28.15493 | 112.60664 | 34129 ft | 379 kts | 272° |
| 2026-05-04 13:08 | 28.16164 | 112.48721 | 34132 ft | 380 kts | 273° |
| 2026-05-04 13:08 | 28.16830 | 112.36762 | 34134 ft | 380 kts | 273° |
| 2026-05-04 13:09 | 28.18058 | 112.17851 | 34154 ft | 382 kts | 276° |
| 2026-05-04 13:09 | 28.18817 | 112.11917 | 34141 ft | 382 kts | 276° |
| 2026-05-04 13:10 | 28.19615 | 112.05967 | 34149 ft | 382 kts | 278° |
| 2026-05-04 13:10 | 28.20912 | 112.00100 | 34150 ft | 385 kts | 284° |
| 2026-05-04 13:11 | 28.22779 | 111.94418 | 34157 ft | 388 kts | 289° |
| 2026-05-04 13:11 | 28.25218 | 111.88962 | 34161 ft | 391 kts | 295° |
| 2026-05-04 13:12 | 28.28141 | 111.83684 | 34155 ft | 393 kts | 297° |
| 2026-05-04 13:12 | 28.31103 | 111.78477 | 34149 ft | 393 kts | 297° |
| 2026-05-04 13:13 | 28.34068 | 111.73286 | 34144 ft | 394 kts | 297° |
| 2026-05-04 13:13 | 28.37046 | 111.68069 | 34143 ft | 393 kts | 297° |
| 2026-05-04 13:14 | 28.40027 | 111.62850 | 34143 ft | 393 kts | 297° |
| 2026-05-04 13:14 | 28.67011 | 111.15217 | 34188 ft | 392 kts | 297° |
| 2026-05-04 13:15 | 29.03298 | 110.51228 | 34139 ft | 393 kts | 295° |
| 2026-05-04 13:15 | 29.05212 | 110.45443 | 34158 ft | 389 kts | 282° |
| 2026-05-04 13:16 | 29.05681 | 110.39331 | 34165 ft | 391 kts | 269° |
| 2026-05-04 13:16 | 29.04690 | 110.33241 | 34167 ft | 396 kts | 255° |
| 2026-05-04 13:17 | 29.02273 | 110.27543 | 34167 ft | 403 kts | 245° |
| 2026-05-04 13:17 | 28.99404 | 110.22051 | 34166 ft | 403 kts | 245° |
| 2026-05-04 13:18 | 28.96502 | 110.16576 | 34162 ft | 404 kts | 245° |
| 2026-05-04 13:18 | 28.93575 | 110.11080 | 34161 ft | 404 kts | 245° |
| 2026-05-04 13:19 | 28.90644 | 110.05595 | 34162 ft | 404 kts | 245° |
| 2026-05-04 13:19 | 28.87705 | 110.00113 | 34161 ft | 405 kts | 245° |
| 2026-05-04 13:20 | 28.84772 | 109.94643 | 34163 ft | 405 kts | 245° |
| 2026-05-04 13:20 | 28.81836 | 109.89175 | 34160 ft | 406 kts | 245° |
| 2026-05-04 13:21 | 28.78877 | 109.83678 | 34150 ft | 405 kts | 245° |
| 2026-05-04 13:21 | 28.75933 | 109.78209 | 34144 ft | 406 kts | 245° |
| 2026-05-04 13:22 | 28.72983 | 109.72740 | 34137 ft | 406 kts | 245° |
| 2026-05-04 13:22 | 28.63126 | 109.54544 | 34171 ft | 406 kts | 245° |
| 2026-05-04 13:23 | 28.52830 | 109.34373 | 34150 ft | 400 kts | 253° |
| 2026-05-04 13:23 | 28.50620 | 109.28581 | 34150 ft | 401 kts | 251° |
| 2026-05-04 13:24 | 28.48224 | 109.22868 | 34149 ft | 403 kts | 250° |
| 2026-05-04 13:24 | 28.45733 | 109.17159 | 34153 ft | 403 kts | 249° |
| 2026-05-04 13:25 | 28.41955 | 109.08639 | 34157 ft | 403 kts | 249° |
| 2026-05-04 13:25 | 28.27233 | 108.75600 | 34171 ft | 404 kts | 250° |
| 2026-05-04 13:26 | 28.19555 | 108.58472 | 34210 ft | 405 kts | 250° |
| 2026-05-04 13:26 | 28.17135 | 108.53076 | 34199 ft | 406 kts | 250° |
| 2026-05-04 13:27 | 28.14524 | 108.47268 | 34191 ft | 407 kts | 250° |
| 2026-05-04 13:27 | 28.11951 | 108.41553 | 34194 ft | 407 kts | 250° |
| 2026-05-04 13:28 | 28.09375 | 108.35841 | 34193 ft | 406 kts | 250° |
| 2026-05-04 13:29 | 28.04124 | 108.24221 | 34194 ft | 408 kts | 250° |
| 2026-05-04 13:29 | 28.01524 | 108.18483 | 34197 ft | 409 kts | 249° |
| 2026-05-04 13:30 | 27.98946 | 108.12798 | 34203 ft | 409 kts | 250° |
| 2026-05-04 13:30 | 27.96340 | 108.07060 | 34202 ft | 410 kts | 250° |
| 2026-05-04 13:31 | 27.93740 | 108.01338 | 34202 ft | 410 kts | 250° |
| 2026-05-04 13:31 | 27.91126 | 107.95598 | 34205 ft | 410 kts | 250° |
| 2026-05-04 13:32 | 27.88560 | 107.89963 | 34209 ft | 410 kts | 250° |
| 2026-05-04 13:32 | 27.85942 | 107.84223 | 34216 ft | 411 kts | 250° |
| 2026-05-04 13:33 | 27.83335 | 107.78522 | 34225 ft | 411 kts | 249° |
| 2026-05-04 13:33 | 27.80740 | 107.72770 | 34235 ft | 411 kts | 250° |
| 2026-05-04 13:34 | 27.78181 | 107.67029 | 34239 ft | 410 kts | 250° |
| 2026-05-04 13:34 | 27.75607 | 107.61260 | 34235 ft | 411 kts | 250° |
| 2026-05-04 13:35 | 27.71713 | 107.52555 | 34228 ft | 411 kts | 250° |
| 2026-05-04 13:36 | 27.69120 | 107.46764 | 34227 ft | 411 kts | 250° |
| 2026-05-04 13:36 | 27.66519 | 107.40967 | 34230 ft | 412 kts | 250° |
| 2026-05-04 13:37 | 27.63935 | 107.35211 | 34229 ft | 412 kts | 250° |
| 2026-05-04 13:37 | 27.61338 | 107.29431 | 34231 ft | 413 kts | 250° |
| 2026-05-04 13:38 | 27.58718 | 107.23611 | 34236 ft | 413 kts | 250° |
| 2026-05-04 13:38 | 27.56127 | 107.17873 | 34235 ft | 413 kts | 250° |
| 2026-05-04 13:39 | 27.53505 | 107.12070 | 34236 ft | 414 kts | 250° |
| 2026-05-04 13:39 | 27.50908 | 107.06313 | 34244 ft | 414 kts | 250° |
| 2026-05-04 13:40 | 27.48280 | 107.00505 | 34244 ft | 415 kts | 250° |
| 2026-05-04 13:40 | 27.45687 | 106.94740 | 34242 ft | 415 kts | 250° |
| 2026-05-04 13:41 | 27.43080 | 106.88902 | 34243 ft | 415 kts | 250° |
| 2026-05-04 13:41 | 27.40515 | 106.83157 | 34241 ft | 414 kts | 250° |
| 2026-05-04 13:42 | 27.36627 | 106.74478 | 34244 ft | 414 kts | 250° |
| 2026-05-04 13:42 | 27.34017 | 106.68705 | 34246 ft | 414 kts | 250° |
| 2026-05-04 13:43 | 27.31395 | 106.62911 | 34243 ft | 414 kts | 249° |
| 2026-05-04 13:43 | 27.28780 | 106.57133 | 34249 ft | 414 kts | 250° |
| 2026-05-04 13:44 | 27.26156 | 106.51343 | 34255 ft | 415 kts | 250° |
| 2026-05-04 13:44 | 27.23545 | 106.45576 | 34260 ft | 415 kts | 250° |
| 2026-05-04 13:45 | 27.20940 | 106.39838 | 34267 ft | 415 kts | 250° |
| 2026-05-04 13:45 | 27.18303 | 106.34046 | 34280 ft | 416 kts | 249° |
| 2026-05-04 13:46 | 27.15672 | 106.28269 | 34283 ft | 415 kts | 249° |
| 2026-05-04 13:47 | 27.10442 | 106.16786 | 34287 ft | 416 kts | 249° |
| 2026-05-04 13:47 | 27.07795 | 106.10986 | 34288 ft | 416 kts | 250° |
| 2026-05-04 13:48 | 27.05422 | 106.05106 | 34290 ft | 412 kts | 254° |
| 2026-05-04 13:48 | 27.03567 | 105.99039 | 34292 ft | 409 kts | 259° |
| 2026-05-04 13:49 | 27.02227 | 105.92874 | 34299 ft | 406 kts | 262° |
| 2026-05-04 13:49 | 27.01033 | 105.86649 | 34298 ft | 407 kts | 263° |
| 2026-05-04 13:50 | 26.99854 | 105.80480 | 34308 ft | 407 kts | 262° |
| 2026-05-04 13:50 | 26.98668 | 105.74277 | 34315 ft | 407 kts | 262° |
| 2026-05-04 13:51 | 26.97485 | 105.68095 | 34323 ft | 407 kts | 263° |
| 2026-05-04 13:51 | 26.96298 | 105.61907 | 34331 ft | 407 kts | 262° |
| 2026-05-04 13:52 | 26.94513 | 105.52635 | 34335 ft | 408 kts | 263° |
| 2026-05-04 13:53 | 26.93314 | 105.46425 | 34340 ft | 408 kts | 262° |
| 2026-05-04 13:53 | 26.92111 | 105.40204 | 34340 ft | 408 kts | 262° |
| 2026-05-04 13:54 | 26.90299 | 105.30866 | 34347 ft | 408 kts | 262° |
| 2026-05-04 13:55 | 26.88519 | 105.21728 | 34347 ft | 408 kts | 262° |
| 2026-05-04 13:55 | 26.86702 | 105.12424 | 34353 ft | 408 kts | 262° |
| 2026-05-04 13:56 | 26.85497 | 105.06266 | 34355 ft | 408 kts | 262° |
| 2026-05-04 13:57 | 26.83663 | 104.96927 | 34359 ft | 409 kts | 262° |
| 2026-05-04 13:58 | 26.81216 | 104.84550 | 34377 ft | 409 kts | 262° |
| 2026-05-04 13:58 | 26.79348 | 104.75208 | 34390 ft | 410 kts | 262° |
| 2026-05-04 13:59 | 26.77865 | 104.69070 | 34397 ft | 414 kts | 256° |
| 2026-05-04 14:00 | 26.73736 | 104.60390 | 34404 ft | 428 kts | 241° |
| 2026-05-04 14:00 | 26.69751 | 104.55344 | 34407 ft | 439 kts | 231° |
| 2026-05-04 14:00 | 26.67420 | 104.53096 | 34409 ft | 443 kts | 228° |
| 2026-05-04 14:01 | 26.62668 | 104.48752 | 34401 ft | 443 kts | 227° |
| 2026-05-04 14:01 | 26.57882 | 104.44411 | 33873 ft | 441 kts | 227° |
| 2026-05-04 14:02 | 26.55500 | 104.42254 | 33602 ft | 439 kts | 227° |
| 2026-05-04 14:02 | 26.53131 | 104.40108 | 33332 ft | 436 kts | 227° |
| 2026-05-04 14:02 | 26.50772 | 104.37971 | 33063 ft | 435 kts | 227° |
| 2026-05-04 14:02 | 26.48436 | 104.35854 | 32794 ft | 435 kts | 227° |
| 2026-05-04 14:03 | 26.46062 | 104.33704 | 32524 ft | 436 kts | 227° |
| 2026-05-04 14:03 | 26.43784 | 104.31641 | 32307 ft | 437 kts | 227° |
| 2026-05-04 14:03 | 26.41395 | 104.29479 | 32084 ft | 438 kts | 226° |
| 2026-05-04 14:03 | 26.38983 | 104.27295 | 31810 ft | 440 kts | 226° |
| 2026-05-04 14:04 | 26.34252 | 104.23016 | 30725 ft | 443 kts | 226° |
| 2026-05-04 14:04 | 26.31852 | 104.20847 | 29989 ft | 446 kts | 225° |
| 2026-05-04 14:04 | 26.29441 | 104.18670 | 29188 ft | 451 kts | 225° |
| 2026-05-04 14:05 | 26.24525 | 104.14238 | 27430 ft | 457 kts | 224° |
| 2026-05-04 14:05 | 26.22056 | 104.12017 | 26557 ft | 460 kts | 224° |
| 2026-05-04 14:05 | 26.19558 | 104.09770 | 25675 ft | 462 kts | 224° |
| 2026-05-04 14:06 | 26.17071 | 104.07534 | 24797 ft | 464 kts | 223° |
| 2026-05-04 14:06 | 26.14558 | 104.05273 | 23874 ft | 466 kts | 223° |
| 2026-05-04 14:06 | 26.12057 | 104.03027 | 23087 ft | 465 kts | 223° |
| 2026-05-04 14:06 | 26.09547 | 104.00775 | 22500 ft | 460 kts | 223° |
| 2026-05-04 14:07 | 26.07071 | 103.98555 | 21911 ft | 455 kts | 223° |
| 2026-05-04 14:07 | 26.04604 | 103.96342 | 21306 ft | 451 kts | 223° |
| 2026-05-04 14:07 | 26.02201 | 103.94187 | 20693 ft | 447 kts | 223° |
| 2026-05-04 14:07 | 25.99808 | 103.91976 | 20061 ft | 442 kts | 225° |
| 2026-05-04 14:08 | 25.97643 | 103.89610 | 19431 ft | 437 kts | 230° |
| 2026-05-04 14:08 | 25.95692 | 103.87043 | 18799 ft | 431 kts | 236° |
| 2026-05-04 14:08 | 25.93948 | 103.84332 | 18171 ft | 427 kts | 238° |
| 2026-05-04 14:08 | 25.92304 | 103.81652 | 17568 ft | 424 kts | 239° |
| 2026-05-04 14:09 | 25.88935 | 103.76318 | 16370 ft | 418 kts | 233° |
| 2026-05-04 14:09 | 25.86980 | 103.73977 | 15793 ft | 416 kts | 226° |
| 2026-05-04 14:10 | 25.82584 | 103.70125 | 14958 ft | 402 kts | 219° |
| 2026-05-04 14:10 | 25.80333 | 103.68344 | 14672 ft | 387 kts | 218° |
| 2026-05-04 14:11 | 25.69209 | 103.59532 | 13536 ft | 300 kts | 219° |
| 2026-05-04 14:12 | 25.67508 | 103.58188 | 13379 ft | 289 kts | 219° |
| 2026-05-04 14:12 | 25.65923 | 103.56936 | 13266 ft | 278 kts | 219° |
| 2026-05-04 14:12 | 25.62775 | 103.54533 | 13009 ft | 274 kts | 208° |
| 2026-05-04 14:13 | 25.60894 | 103.54157 | 12817 ft | 282 kts | 176° |
| 2026-05-04 14:13 | 25.59638 | 103.54546 | 12784 ft | 288 kts | 156° |
| 2026-05-04 14:13 | 25.57602 | 103.56499 | 12838 ft | 295 kts | 134° |
| 2026-05-04 14:13 | 25.56227 | 103.58209 | 12832 ft | 295 kts | 134° |
| 2026-05-04 14:14 | 25.54795 | 103.59846 | 12826 ft | 294 kts | 141° |
| 2026-05-04 14:14 | 25.51480 | 103.62460 | 12828 ft | 292 kts | 150° |
| 2026-05-04 14:14 | 25.49777 | 103.63651 | 12828 ft | 292 kts | 150° |
| 2026-05-04 14:15 | 25.46231 | 103.65846 | 12828 ft | 289 kts | 162° |
| 2026-05-04 14:15 | 25.42433 | 103.67283 | 12827 ft | 288 kts | 166° |
| 2026-05-04 14:16 | 25.38594 | 103.68560 | 12824 ft | 286 kts | 172° |
| 2026-05-04 14:16 | 25.36627 | 103.68870 | 12826 ft | 283 kts | 179° |
| 2026-05-04 14:17 | 25.33347 | 103.69125 | 12821 ft | 283 kts | 181° |
| 2026-05-04 14:17 | 25.27301 | 103.68987 | 12824 ft | 278 kts | 194° |
| 2026-05-04 14:18 | 25.25377 | 103.68604 | 12825 ft | 278 kts | 195° |
| 2026-05-04 14:18 | 25.21558 | 103.67795 | 12822 ft | 277 kts | 198° |
| 2026-05-04 14:19 | 25.17981 | 103.66333 | 12804 ft | 273 kts | 209° |
| 2026-05-04 14:19 | 25.16271 | 103.65462 | 12794 ft | 272 kts | 210° |
| 2026-05-04 14:19 | 25.14529 | 103.64573 | 12787 ft | 272 kts | 210° |
| 2026-05-04 14:19 | 25.12852 | 103.63648 | 12781 ft | 270 kts | 215° |
| 2026-05-04 14:20 | 25.11280 | 103.62498 | 12782 ft | 268 kts | 222° |
| 2026-05-04 14:20 | 25.09824 | 103.61224 | 12783 ft | 268 kts | 223° |
| 2026-05-04 14:20 | 25.08407 | 103.59912 | 12776 ft | 266 kts | 230° |
| 2026-05-04 14:21 | 25.07394 | 103.56241 | 12778 ft | 259 kts | 282° |
| 2026-05-04 14:21 | 25.08116 | 103.54436 | 12779 ft | 261 kts | 306° |
| 2026-05-04 14:21 | 25.09402 | 103.53016 | 12795 ft | 263 kts | 314° |
| 2026-05-04 14:21 | 25.10744 | 103.51619 | 12780 ft | 263 kts | 313° |
| 2026-05-04 14:22 | 25.12068 | 103.50224 | 12782 ft | 263 kts | 313° |
| 2026-05-04 14:22 | 25.13407 | 103.48811 | 12784 ft | 263 kts | 313° |
| 2026-05-04 14:22 | 25.14714 | 103.47429 | 12768 ft | 261 kts | 313° |
| 2026-05-04 14:22 | 25.16014 | 103.46057 | 12517 ft | 258 kts | 313° |
| 2026-05-04 14:23 | 25.18621 | 103.43296 | 11668 ft | 261 kts | 313° |
| 2026-05-04 14:23 | 25.19952 | 103.41887 | 11273 ft | 261 kts | 314° |
| 2026-05-04 14:23 | 25.21245 | 103.40517 | 11014 ft | 260 kts | 314° |
| 2026-05-04 14:24 | 25.22559 | 103.39126 | 11012 ft | 263 kts | 314° |
| 2026-05-04 14:24 | 25.23889 | 103.37717 | 11008 ft | 264 kts | 314° |
| 2026-05-04 14:24 | 25.25220 | 103.36310 | 11006 ft | 263 kts | 314° |
| 2026-05-04 14:24 | 25.26532 | 103.34918 | 11006 ft | 264 kts | 314° |
| 2026-05-04 14:25 | 25.27871 | 103.33498 | 11010 ft | 264 kts | 314° |
| 2026-05-04 14:25 | 25.30519 | 103.30693 | 11004 ft | 259 kts | 313° |
| 2026-05-04 14:25 | 25.31714 | 103.29308 | 10982 ft | 243 kts | 308° |
| 2026-05-04 14:26 | 25.32769 | 103.27870 | 10738 ft | 238 kts | 306° |
| 2026-05-04 14:26 | 25.33773 | 103.26457 | 10538 ft | 228 kts | 306° |
| 2026-05-04 14:26 | 25.34723 | 103.25121 | 10390 ft | 215 kts | 306° |
| 2026-05-04 14:26 | 25.35625 | 103.23852 | 10182 ft | 205 kts | 306° |
| 2026-05-04 14:27 | 25.36488 | 103.22639 | 9971 ft | 194 kts | 306° |
| 2026-05-04 14:27 | 25.37224 | 103.21459 | 9801 ft | 178 kts | 291° |
| 2026-05-04 14:27 | 25.37481 | 103.20161 | 9842 ft | 174 kts | 269° |
| 2026-05-04 14:27 | 25.37266 | 103.18844 | 9831 ft | 174 kts | 248° |
| 2026-05-04 14:28 | 25.36612 | 103.17718 | 9829 ft | 175 kts | 227° |
| 2026-05-04 14:28 | 25.35680 | 103.16838 | 9831 ft | 176 kts | 220° |
| 2026-05-04 14:28 | 25.34731 | 103.15979 | 9828 ft | 176 kts | 221° |
| 2026-05-04 14:28 | 25.33800 | 103.15112 | 9825 ft | 176 kts | 221° |
| 2026-05-04 14:29 | 25.31912 | 103.13393 | 9827 ft | 175 kts | 220° |
| 2026-05-04 14:29 | 25.30016 | 103.11719 | 9821 ft | 173 kts | 220° |
| 2026-05-04 14:30 | 25.29072 | 103.10899 | 9820 ft | 172 kts | 219° |
| 2026-05-04 14:30 | 25.28123 | 103.10078 | 9822 ft | 172 kts | 219° |
| 2026-05-04 14:30 | 25.26224 | 103.08444 | 9817 ft | 172 kts | 219° |
| 2026-05-04 14:31 | 25.25274 | 103.07628 | 9813 ft | 173 kts | 219° |
| 2026-05-04 14:31 | 25.23361 | 103.05984 | 9698 ft | 172 kts | 219° |
| 2026-05-04 14:32 | 25.21578 | 103.04449 | 9266 ft | 159 kts | 219° |
| 2026-05-04 14:32 | 25.20703 | 103.03693 | 9069 ft | 158 kts | 219° |
| 2026-05-04 14:32 | 25.19843 | 103.02951 | 8877 ft | 157 kts | 219° |
| 2026-05-04 14:32 | 25.18987 | 103.02211 | 8681 ft | 157 kts | 218° |
| 2026-05-04 14:33 | 25.18120 | 103.01463 | 8482 ft | 156 kts | 218° |
| 2026-05-04 14:33 | 25.17269 | 103.00727 | 8282 ft | 156 kts | 218° |
| 2026-05-04 14:33 | 25.16412 | 102.99986 | 8077 ft | 155 kts | 218° |
| 2026-05-04 14:33 | 25.15563 | 102.99253 | 7878 ft | 155 kts | 218° |
| 2026-05-04 14:34 | 25.14706 | 102.98512 | 7674 ft | 154 kts | 218° |
| 2026-05-04 14:34 | 25.13864 | 102.97785 | 7478 ft | 154 kts | 218° |
| 2026-05-04 14:34 | 25.13019 | 102.97054 | 7281 ft | 153 kts | 218° |
| 2026-05-04 14:34 | 25.12186 | 102.96342 | 7108 ft | 153 kts | 217° |
| 2026-05-04 14:35 | 25.11343 | 102.95618 | 6929 ft | 151 kts | 218° |
| 2026-05-04 14:35 | 25.10588 | 102.94965 | 6911 ft | 115 kts | 218° |
| 2026-05-04 14:35 | 25.10102 | 102.94540 | 6911 ft | 49 kts | 219° |
| 2026-05-04 14:35 | 25.09952 | 102.94327 | 6911 ft | 21 kts | 246° |
| 2026-05-04 14:36 | 25.09894 | 102.94183 | 6911 ft | 19 kts | 245° |
| 2026-05-04 14:36 | 25.09823 | 102.94059 | 6911 ft | 18 kts | 224° |
| 2026-05-04 14:36 | 25.09725 | 102.93969 | 6911 ft | 17 kts | 224° |
| 2026-05-04 14:36 | 25.09743 | 102.93858 | 6911 ft | 16 kts | 310° |
| 2026-05-04 14:37 | 25.09815 | 102.93761 | 6911 ft | 16 kts | 308° |
| 2026-05-04 14:37 | 25.09887 | 102.93661 | 6911 ft | 17 kts | 308° |
| 2026-05-04 14:37 | 25.09965 | 102.93554 | 6911 ft | 18 kts | 308° |
| 2026-05-04 14:37 | 25.10043 | 102.93439 | 6911 ft | 14 kts | 296° |
| 2026-05-04 14:38 | 25.10093 | 102.93396 | 6911 ft | 8 kts | 1° |
| 2026-05-04 14:38 | 25.10139 | 102.93405 | 6911 ft | 6 kts | 13° |
| 2026-05-04 14:38 | 25.10178 | 102.93416 | 6911 ft | 2 kts | 13° |
| 2026-05-04 14:38 | 25.10192 | 102.93419 | 6911 ft | 1 kts | 12° |
| 2026-05-04 14:39 | 25.10198 | 102.93420 | 6911 ft | 0 kts | 12° |